createdAt,value
2019-03-23T00:00:50.268Z,4.29
2019-03-23T00:02:50.323Z,4.25
2019-03-23T00:04:49.898Z,4.23
2019-03-23T00:06:50.224Z,4.21
2019-03-23T00:08:50.295Z,4.21
2019-03-23T00:10:50.495Z,4.12
2019-03-23T00:12:50.594Z,4.07
2019-03-23T00:14:49.697Z,4.05
2019-03-23T00:16:49.968Z,4.02
2019-03-23T00:18:49.979Z,4.02
2019-03-23T00:20:49.999Z,3.94
2019-03-23T00:22:50.121Z,3.91
2019-03-23T00:24:50.186Z,3.84
2019-03-23T00:26:50.369Z,3.82
2019-03-23T00:28:50.391Z,3.79
2019-03-23T00:30:50.480Z,3.76
2019-03-23T00:32:50.504Z,3.74
2019-03-23T00:34:49.997Z,3.70
2019-03-23T00:36:50.160Z,3.68
2019-03-23T00:38:50.209Z,3.65
2019-03-23T00:40:50.313Z,3.63
2019-03-23T00:42:50.333Z,3.61
2019-03-23T00:44:50.478Z,3.56
2019-03-23T00:46:49.963Z,3.53
2019-03-23T00:48:50.027Z,3.51
2019-03-23T00:50:50.148Z,3.50
2019-03-23T00:52:50.259Z,3.49
2019-03-23T00:54:50.316Z,3.44
2019-03-23T00:56:50.492Z,3.42
2019-03-23T00:58:50.536Z,3.43
2019-03-23T01:00:50.617Z,3.39
2019-03-23T01:02:49.806Z,3.35
2019-03-23T01:04:50.136Z,3.30
2019-03-23T01:06:52.774Z,3.29
2019-03-23T01:08:49.882Z,3.27
2019-03-23T01:10:50.029Z,3.26
2019-03-23T01:12:50.150Z,3.26
2019-03-23T01:14:50.201Z,3.23
2019-03-23T01:16:50.503Z,3.22
2019-03-23T01:18:50.602Z,3.17
2019-03-23T01:20:50.379Z,3.16
2019-03-23T01:22:50.537Z,3.09
2019-03-23T01:24:50.546Z,3.11
2019-03-23T01:26:49.992Z,3.13
2019-03-23T01:28:50.099Z,3.09
2019-03-23T01:30:50.200Z,3.00
2019-03-23T01:32:50.373Z,2.99
2019-03-23T01:34:49.721Z,2.97
2019-03-23T01:36:50.011Z,2.97
2019-03-23T01:38:50.102Z,2.96
2019-03-23T01:40:50.177Z,2.94
2019-03-23T01:42:50.247Z,2.93
2019-03-23T01:44:50.351Z,2.88
2019-03-23T01:46:49.720Z,2.87
2019-03-23T01:48:49.853Z,2.89
2019-03-23T01:50:49.945Z,2.92
2019-03-23T01:52:50.074Z,2.88
2019-03-23T01:54:50.109Z,2.83
2019-03-23T01:56:50.199Z,2.77
2019-03-23T01:58:50.299Z,2.76
2019-03-23T02:00:50.323Z,2.78
2019-03-23T02:02:50.479Z,2.81
2019-03-23T02:04:49.887Z,2.81
2019-03-23T02:06:50.143Z,2.80
2019-03-23T02:08:50.219Z,2.77
2019-03-23T02:10:50.289Z,2.75
2019-03-23T02:12:50.511Z,2.77
2019-03-23T02:14:50.625Z,2.73
2019-03-23T02:16:49.938Z,2.69
2019-03-23T02:18:49.988Z,2.64
2019-03-23T02:20:50.120Z,2.62
2019-03-23T02:22:50.366Z,2.60
2019-03-23T02:24:50.591Z,2.56
2019-03-23T02:26:49.919Z,2.49
2019-03-23T02:28:50.092Z,2.45
2019-03-23T02:30:50.249Z,2.44
2019-03-23T02:32:50.393Z,2.43
2019-03-23T02:34:49.844Z,2.38
2019-03-23T02:36:50.116Z,2.35
2019-03-23T02:38:50.320Z,2.30
2019-03-23T02:40:50.365Z,2.23
2019-03-23T02:42:50.565Z,2.22
2019-03-23T02:44:50.611Z,2.17
2019-03-23T02:46:49.927Z,2.12
2019-03-23T02:48:50.006Z,2.09
2019-03-23T02:50:50.121Z,2.04
2019-03-23T02:52:50.289Z,2.01
2019-03-23T02:54:50.364Z,1.95
2019-03-23T02:56:50.658Z,1.91
2019-03-23T02:58:50.680Z,1.93
2019-03-23T03:00:49.823Z,1.92
2019-03-23T03:02:49.946Z,1.88
2019-03-23T03:04:50.443Z,1.87
2019-03-23T03:06:50.668Z,1.84
2019-03-23T03:08:50.574Z,1.82
2019-03-23T03:10:49.780Z,1.79
2019-03-23T03:12:49.816Z,1.77
2019-03-23T03:14:49.886Z,1.74
2019-03-23T03:16:50.179Z,1.73
2019-03-23T03:18:50.254Z,1.71
2019-03-23T03:20:50.386Z,1.70
2019-03-23T03:22:50.448Z,1.64
2019-03-23T03:24:50.491Z,1.62
2019-03-23T03:26:49.712Z,1.57
2019-03-23T03:28:49.765Z,1.57
2019-03-23T03:30:49.898Z,1.54
2019-03-23T03:32:50.007Z,1.52
2019-03-23T03:34:50.530Z,1.47
2019-03-23T03:36:49.799Z,1.43
2019-03-23T03:38:49.943Z,1.40
2019-03-23T03:40:50.006Z,1.38
2019-03-23T03:42:50.197Z,1.37
2019-03-23T03:44:50.330Z,1.36
2019-03-23T03:46:50.634Z,1.33
2019-03-23T03:48:50.616Z,1.30
2019-03-23T03:50:50.716Z,1.28
2019-03-23T03:52:49.848Z,1.28
2019-03-23T03:54:50.077Z,1.27
2019-03-23T03:56:50.328Z,1.27
2019-03-23T03:58:50.406Z,1.24
2019-03-23T04:00:50.661Z,1.23
2019-03-23T04:02:49.788Z,1.19
2019-03-23T04:04:50.273Z,1.15
2019-03-23T04:06:50.510Z,1.14
2019-03-23T04:08:50.550Z,1.14
2019-03-23T04:10:50.638Z,1.13
2019-03-23T04:12:49.749Z,1.14
2019-03-23T04:14:49.877Z,1.15
2019-03-23T04:16:50.129Z,1.12
2019-03-23T04:18:50.198Z,1.09
2019-03-23T04:20:50.316Z,1.06
2019-03-23T04:22:50.501Z,1.07
2019-03-23T04:24:50.596Z,1.08
2019-03-23T04:26:49.746Z,1.07
2019-03-23T04:28:49.865Z,1.07
2019-03-23T04:30:50.067Z,1.06
2019-03-23T04:32:50.188Z,1.04
2019-03-23T04:34:50.519Z,1.03
2019-03-23T04:36:49.809Z,1.02
2019-03-23T04:38:49.846Z,1.00
2019-03-23T04:40:49.938Z,0.99
2019-03-23T04:42:50.008Z,0.99
2019-03-23T04:44:50.134Z,0.95
2019-03-23T04:46:50.314Z,0.93
2019-03-23T04:48:50.344Z,0.93
2019-03-23T04:50:50.474Z,0.93
2019-03-23T04:52:50.457Z,0.87
2019-03-23T04:54:50.435Z,0.83
2019-03-23T04:56:50.609Z,0.81
2019-03-23T04:58:50.636Z,0.80
2019-03-23T05:00:49.722Z,0.81
2019-03-23T05:02:49.725Z,0.80
2019-03-23T05:04:50.258Z,0.77
2019-03-23T05:06:50.539Z,0.74
2019-03-23T05:08:49.737Z,0.77
2019-03-23T05:10:49.807Z,0.76
2019-03-23T05:12:49.792Z,0.74
2019-03-23T05:14:49.927Z,0.74
2019-03-23T05:16:50.090Z,0.74
2019-03-23T05:18:50.230Z,0.74
2019-03-23T05:20:50.286Z,0.73
2019-03-23T05:22:50.351Z,0.72
2019-03-23T05:24:50.475Z,0.69
2019-03-23T05:26:50.312Z,0.69
2019-03-23T05:28:50.475Z,0.73
2019-03-23T05:30:50.518Z,0.73
2019-03-23T05:32:50.590Z,0.73
2019-03-23T05:34:49.978Z,0.72
2019-03-23T05:36:50.177Z,0.75
2019-03-23T05:38:50.374Z,0.80
2019-03-23T05:40:50.388Z,0.83
2019-03-23T05:42:50.412Z,0.84
2019-03-23T05:44:50.538Z,0.87
2019-03-23T05:46:49.779Z,0.88
2019-03-23T05:48:49.866Z,0.92
2019-03-23T05:50:49.869Z,0.97
2019-03-23T05:52:50.044Z,1.07
2019-03-23T05:54:50.083Z,1.12
2019-03-23T05:56:50.313Z,1.17
2019-03-23T05:58:50.364Z,1.23
2019-03-23T06:00:50.413Z,1.34
2019-03-23T06:02:50.427Z,1.38
2019-03-23T06:04:49.736Z,1.46
2019-03-23T06:06:50.008Z,1.54
2019-03-23T06:08:55.814Z,1.59
2019-03-23T06:10:50.038Z,1.62
2019-03-23T06:12:50.133Z,1.75
2019-03-23T06:14:50.230Z,1.85
2019-03-23T06:16:50.543Z,1.92
2019-03-23T06:18:50.564Z,1.98
2019-03-23T06:20:50.652Z,2.16
2019-03-23T06:22:49.782Z,2.29
2019-03-23T06:24:49.911Z,2.38
2019-03-23T06:26:50.197Z,2.38
2019-03-23T06:28:50.291Z,2.61
2019-03-23T06:30:50.281Z,2.76
2019-03-23T06:32:50.446Z,2.85
2019-03-23T06:34:49.863Z,2.95
2019-03-23T06:36:49.754Z,3.13
2019-03-23T06:38:49.847Z,3.38
2019-03-23T06:40:50.034Z,3.4
2019-03-23T06:43:00.310Z,3.49
2019-03-23T06:44:50.391Z,3.53
2019-03-23T06:46:50.507Z,3.57
2019-03-23T06:48:50.636Z,3.65
2019-03-23T06:50:49.703Z,3.70
2019-03-23T06:52:49.787Z,3.7
2019-03-23T06:54:49.842Z,3.8
2019-03-23T06:56:49.969Z,3.9
2019-03-23T06:58:50.090Z,3.9
2019-03-23T07:00:50.170Z,3.9
2019-03-23T07:02:50.186Z,4.0
2019-03-23T07:04:50.589Z,4.1
2019-03-23T07:06:49.830Z,4.2
2019-03-23T07:08:49.977Z,4.3
2019-03-23T07:10:50.105Z,4.3
2019-03-23T07:12:50.274Z,4.4
2019-03-23T07:14:50.298Z,4.5
2019-03-23T07:16:50.466Z,4.7
2019-03-23T07:18:50.522Z,4.8
2019-03-23T07:20:50.559Z,4.9
2019-03-23T07:22:50.562Z,4.9
2019-03-23T07:24:50.596Z,5.1
2019-03-23T07:26:50.686Z,5.2
2019-03-23T07:28:49.737Z,5.3
2019-03-23T07:30:49.820Z,5.5
2019-03-23T07:32:50.109Z,5.5
2019-03-23T07:34:50.593Z,5.7
2019-03-23T07:36:49.895Z,5.8
2019-03-23T07:38:49.938Z,5.8
2019-03-23T07:40:49.962Z,5.9
2019-03-23T07:42:49.992Z,6.0
2019-03-23T07:44:50.118Z,6.2
2019-03-23T07:46:50.315Z,6.2
2019-03-23T07:48:50.372Z,6.3
2019-03-23T07:50:50.559Z,6.5
2019-03-23T07:52:50.641Z,6.6
2019-03-23T07:54:49.699Z,6.7
2019-03-23T07:56:49.953Z,6.7
2019-03-23T07:58:49.987Z,6.8
2019-03-23T08:00:50.061Z,7.0
2019-03-23T08:02:50.219Z,7.1
2019-03-23T08:04:50.539Z,7.2
2019-03-23T08:06:50.605Z,7.2
2019-03-23T08:08:50.607Z,7.4
2019-03-23T08:10:49.722Z,7.6
2019-03-23T08:12:49.825Z,7.7
2019-03-23T08:14:49.843Z,7.7
2019-03-23T08:16:50.007Z,7.8
2019-03-23T08:18:50.083Z,7.9
2019-03-23T08:20:50.235Z,8.0
2019-03-23T08:22:50.319Z,8.1
2019-03-23T08:24:50.395Z,8.1
2019-03-23T08:26:50.637Z,8.2
2019-03-23T08:28:49.847Z,8.4
2019-03-23T08:30:49.874Z,8.4
2019-03-23T08:32:50.055Z,8.4
2019-03-23T08:34:50.497Z,8.6
2019-03-23T08:36:49.728Z,8.8
2019-03-23T08:38:52.021Z,8.8
2019-03-23T08:40:50.036Z,8.9
2019-03-23T08:42:50.089Z,9.1
2019-03-23T08:44:50.234Z,9.1
2019-03-23T08:46:50.393Z,9.1
2019-03-23T08:48:50.448Z,9.3
2019-03-23T08:50:50.614Z,9.4
2019-03-23T08:52:49.727Z,9.5
2019-03-23T08:54:49.808Z,9.5
2019-03-23T08:56:50.125Z,9.6
2019-03-23T08:58:50.253Z,9.7
2019-03-23T09:00:50.351Z,9.8
2019-03-23T09:02:50.388Z,9.8
2019-03-23T09:04:49.920Z,9.8
2019-03-23T09:06:50.095Z,10.0
2019-03-23T09:08:50.123Z,10.1
2019-03-23T09:10:50.175Z,10.2
2019-03-23T09:12:50.317Z,10.3
2019-03-23T09:14:50.334Z,10.3
2019-03-23T09:16:50.541Z,10.4
2019-03-23T09:18:50.672Z,10.5
2019-03-23T09:20:49.765Z,10.6
2019-03-23T09:22:49.770Z,10.8
2019-03-23T09:24:49.905Z,10.8
2019-03-23T09:26:50.158Z,10.8
2019-03-23T09:28:50.261Z,11.0
2019-03-23T09:30:50.365Z,11.0
2019-03-23T09:32:50.381Z,11.1
2019-03-23T09:34:49.848Z,11.2
2019-03-23T09:36:50.099Z,11.2
2019-03-23T09:38:50.162Z,11.3
2019-03-23T09:40:50.272Z,11.3
2019-03-23T09:42:50.396Z,11.4
2019-03-23T09:44:50.472Z,11.4
2019-03-23T09:46:50.631Z,11.6
2019-03-23T09:48:50.659Z,11.6
2019-03-23T09:50:49.793Z,11.6
2019-03-23T09:52:49.933Z,11.7
2019-03-23T09:54:50.151Z,11.8
2019-03-23T09:56:50.373Z,11.9
2019-03-23T09:58:50.614Z,12.0
2019-03-23T10:00:50.676Z,12.0
2019-03-23T10:02:49.802Z,12.1
2019-03-23T10:04:50.349Z,12.2
2019-03-23T10:06:50.516Z,12.2
2019-03-23T10:08:50.600Z,12.2
2019-03-23T10:10:50.673Z,12.3
2019-03-23T10:12:49.784Z,12.4
2019-03-23T10:14:49.885Z,12.4
2019-03-23T10:16:50.236Z,12.4
2019-03-23T10:18:50.397Z,12.4
2019-03-23T10:20:50.418Z,12.6
2019-03-23T10:22:50.554Z,12.7
2019-03-23T10:24:49.677Z,12.8
2019-03-23T10:26:52.588Z,12.8
2019-03-23T10:28:49.720Z,12.8
2019-03-23T10:30:49.799Z,12.9
2019-03-23T10:32:49.957Z,13.0
2019-03-23T10:34:50.413Z,13.0
2019-03-23T10:36:50.635Z,13.1
2019-03-23T10:38:49.771Z,13.1
2019-03-23T10:40:49.839Z,13.2
2019-03-23T10:42:49.961Z,13.3
2019-03-23T10:44:50.103Z,13.3
2019-03-23T10:46:50.357Z,13.3
2019-03-23T10:48:50.487Z,13.4
2019-03-23T10:50:50.591Z,13.5
2019-03-23T10:52:49.750Z,13.6
2019-03-23T10:54:49.797Z,13.6
2019-03-23T10:56:50.001Z,13.6
2019-03-23T10:58:50.175Z,13.6
2019-03-23T11:00:50.200Z,13.7
2019-03-23T11:02:50.286Z,13.7
2019-03-23T11:04:49.732Z,13.8
2019-03-23T11:06:49.935Z,13.8
2019-03-23T11:08:50.077Z,13.8
2019-03-23T11:10:50.146Z,14.0
2019-03-23T11:12:50.200Z,14.0
2019-03-23T11:14:50.365Z,14.1
2019-03-23T11:16:50.515Z,14.1
2019-03-23T11:18:50.488Z,14.2
2019-03-23T11:20:50.545Z,14.2
2019-03-23T11:22:50.641Z,14.2
2019-03-23T11:24:49.728Z,14.3
2019-03-23T11:26:49.962Z,14.3
2019-03-23T11:28:50.124Z,14.4
2019-03-23T11:30:50.183Z,14.4
2019-03-23T11:32:50.335Z,14.5
2019-03-23T11:34:49.807Z,14.6
2019-03-23T11:36:50.000Z,14.6
2019-03-23T11:38:50.136Z,14.6
2019-03-23T11:40:55.644Z,14.8
2019-03-23T11:42:50.796Z,14.8
2019-03-23T11:44:50.213Z,14.8
2019-03-23T11:46:50.599Z,14.9
2019-03-23T11:48:50.653Z,14.9
2019-03-23T11:50:49.858Z,15.0
2019-03-23T11:52:50.003Z,15.0
2019-03-23T11:54:50.051Z,15.0
2019-03-23T11:56:50.215Z,15.1
2019-03-23T11:58:50.366Z,15.2
2019-03-23T12:00:50.423Z,15.3
2019-03-23T12:02:50.479Z,15.3
2019-03-23T12:04:50.023Z,15.3
2019-03-23T12:06:50.351Z,15.4
2019-03-23T12:08:50.410Z,15.4
2019-03-23T12:10:50.488Z,15.4
2019-03-23T12:12:50.444Z,15.4
2019-03-23T12:14:50.423Z,15.5
2019-03-23T12:16:50.589Z,15.6
2019-03-23T12:18:49.761Z,15.6
2019-03-23T12:20:49.833Z,15.7
2019-03-23T12:22:49.897Z,15.7
2019-03-23T12:24:50.002Z,15.8
2019-03-23T12:26:50.154Z,15.9
2019-03-23T12:28:50.206Z,15.9
2019-03-23T12:30:50.342Z,16.0
2019-03-23T12:32:50.337Z,16.0
2019-03-23T12:34:49.825Z,16.1
2019-03-23T12:36:49.982Z,16.2
2019-03-23T12:38:50.037Z,16.2
2019-03-23T12:40:50.109Z,16.2
2019-03-23T12:42:50.200Z,16.3
2019-03-23T12:44:50.293Z,16.3
2019-03-23T12:46:50.470Z,16.3
2019-03-23T12:48:50.624Z,16.3
2019-03-23T12:50:50.659Z,16.4
2019-03-23T12:52:49.874Z,16.5
2019-03-23T12:54:49.914Z,16.6
2019-03-23T12:56:50.049Z,16.6
2019-03-23T12:58:50.181Z,16.6
2019-03-23T13:00:50.336Z,16.6
2019-03-23T13:02:50.398Z,16.6
2019-03-23T13:04:49.685Z,16.7
2019-03-23T13:06:50.064Z,16.8
2019-03-23T13:08:50.163Z,16.8
2019-03-23T13:10:50.204Z,16.8
2019-03-23T13:12:50.266Z,16.8
2019-03-23T13:14:50.351Z,16.8
2019-03-23T13:16:49.754Z,16.9
2019-03-23T13:18:49.805Z,16.9
2019-03-23T13:20:49.971Z,17.0
2019-03-23T13:22:49.986Z,17.0
2019-03-23T13:24:50.022Z,17.0
2019-03-23T13:26:50.239Z,17.0
2019-03-23T13:28:50.391Z,17.1
2019-03-23T13:30:50.497Z,17.1
2019-03-23T13:32:50.587Z,17.1
2019-03-23T13:34:50.127Z,17.2
2019-03-23T13:36:50.286Z,17.2
2019-03-23T13:38:50.279Z,17.3
2019-03-23T13:40:50.255Z,17.3
2019-03-23T13:42:50.418Z,17.3
2019-03-23T13:44:50.466Z,17.3
2019-03-23T13:46:50.694Z,17.3
2019-03-23T13:48:49.790Z,17.4
2019-03-23T13:50:49.902Z,17.4
2019-03-23T13:52:50.092Z,17.4
2019-03-23T13:54:50.101Z,17.5
2019-03-23T13:56:50.288Z,17.5
2019-03-23T13:58:50.372Z,17.5
2019-03-23T14:00:50.426Z,17.5
2019-03-23T14:02:50.559Z,17.6
2019-03-23T14:04:50.670Z,17.6
2019-03-23T14:06:49.943Z,17.6
2019-03-23T14:08:50.046Z,17.6
2019-03-23T14:10:50.208Z,17.7
2019-03-23T14:12:50.305Z,17.7
2019-03-23T14:14:50.406Z,17.7
2019-03-23T14:16:50.688Z,17.7
2019-03-23T14:18:50.659Z,17.7
2019-03-23T14:20:49.848Z,17.8
2019-03-23T14:22:49.885Z,17.8
2019-03-23T14:24:49.972Z,17.8
2019-03-23T14:26:50.207Z,17.8
2019-03-23T14:28:50.262Z,17.8
2019-03-23T14:30:50.336Z,17.8
2019-03-23T14:32:50.472Z,17.8
2019-03-23T14:34:49.867Z,17.8
2019-03-23T14:36:50.179Z,17.8
2019-03-23T14:38:50.170Z,17.9
2019-03-23T14:40:50.217Z,17.9
2019-03-23T14:42:50.272Z,17.9
2019-03-23T14:44:50.366Z,17.9
2019-03-23T14:46:50.505Z,17.9
2019-03-23T14:48:50.543Z,17.9
2019-03-23T14:50:50.532Z,18.0
2019-03-23T14:52:50.565Z,18.0
2019-03-23T14:54:50.625Z,18.0
2019-03-23T14:56:49.766Z,18.0
2019-03-23T14:58:49.903Z,18.1
2019-03-23T15:00:49.888Z,18.0
2019-03-23T15:02:49.937Z,18.0
2019-03-23T15:04:50.295Z,18.1
2019-03-23T15:06:50.533Z,18.1
2019-03-23T15:08:50.531Z,18.2
2019-03-23T15:10:50.494Z,18.2
2019-03-23T15:12:50.522Z,18.2
2019-03-23T15:14:50.624Z,18.1
2019-03-23T15:16:49.710Z,18.1
2019-03-23T15:18:49.903Z,18.1
2019-03-23T15:20:49.949Z,18.1
2019-03-23T15:22:50.007Z,18.1
2019-03-23T15:24:50.109Z,18.1
2019-03-23T15:26:50.287Z,18.1
2019-03-23T15:28:50.411Z,18.0
2019-03-23T15:30:51.195Z,18.0
2019-03-23T15:32:50.380Z,18.0
2019-03-23T15:34:49.768Z,18.0
2019-03-23T15:36:49.969Z,18.0
2019-03-23T15:38:50.118Z,18.0
2019-03-23T15:40:50.168Z,18.0
2019-03-23T15:42:50.305Z,18.0
2019-03-23T15:44:50.353Z,18.0
2019-03-23T15:46:50.544Z,17.9
2019-03-23T15:48:50.578Z,17.9
2019-03-23T15:50:50.613Z,17.9
2019-03-23T15:52:50.634Z,17.9
2019-03-23T15:54:50.609Z,17.9
2019-03-23T15:56:49.807Z,17.8
2019-03-23T15:58:49.921Z,17.8
2019-03-23T16:00:49.910Z,17.9
2019-03-23T16:02:49.955Z,17.8
2019-03-23T16:04:50.387Z,17.8
2019-03-23T16:06:50.525Z,17.8
2019-03-23T16:08:50.598Z,17.8
2019-03-23T16:10:50.673Z,17.7
2019-03-23T16:12:49.696Z,17.7
2019-03-23T16:14:49.733Z,17.6
2019-03-23T16:16:50.072Z,17.6
2019-03-23T16:18:50.227Z,17.6
2019-03-23T16:20:50.388Z,17.6
2019-03-23T16:22:50.391Z,17.5
2019-03-23T16:24:50.469Z,17.5
2019-03-23T16:26:49.692Z,17.5
2019-03-23T16:28:49.716Z,17.5
2019-03-23T16:30:49.786Z,17.5
2019-03-23T16:32:49.845Z,17.4
2019-03-23T16:34:50.355Z,17.4
2019-03-23T16:36:50.609Z,17.37
2019-03-23T16:38:50.619Z,17.3
2019-03-23T16:40:50.658Z,17.2
2019-03-23T16:42:49.791Z,17.2
2019-03-23T16:44:49.813Z,17.2
2019-03-23T16:46:50.138Z,17.14
2019-03-23T16:48:50.182Z,17.1
2019-03-23T16:52:50.350Z,17.0
2019-03-23T16:54:50.355Z,16.9
2019-03-23T16:56:50.597Z,16.9
2019-03-23T16:58:50.884Z,16.86
2019-03-23T17:00:50.271Z,16.77
2019-03-23T17:02:50.439Z,16.63
2019-03-23T17:04:49.741Z,16.62
2019-03-23T17:06:50.000Z,16.55
2019-03-23T17:08:50.122Z,16.45
2019-03-23T17:10:50.176Z,16.38
2019-03-23T17:12:55.925Z,16.24
2019-03-23T17:14:49.945Z,16.12
2019-03-23T17:16:50.210Z,15.95
2019-03-23T17:18:50.263Z,15.86
2019-03-23T17:20:50.347Z,15.73
2019-03-23T17:22:50.469Z,15.64
2019-03-23T17:24:50.510Z,15.79
2019-03-23T17:26:50.683Z,15.70
2019-03-23T17:28:49.771Z,15.63
2019-03-23T17:30:49.840Z,15.42
2019-03-23T17:32:50.078Z,15.13
2019-03-23T17:34:50.450Z,14.90
2019-03-23T17:36:50.713Z,14.69
2019-03-23T17:38:49.753Z,14.53
2019-03-23T17:40:49.923Z,14.36
2019-03-23T17:42:49.975Z,14.18
2019-03-23T17:44:50.040Z,13.96
2019-03-23T17:46:50.164Z,13.83
2019-03-23T17:48:50.302Z,13.60
2019-03-23T17:50:50.275Z,13.47
2019-03-23T17:52:50.339Z,13.30
2019-03-23T17:54:50.464Z,13.14
2019-03-23T17:56:50.635Z,12.90
2019-03-23T17:58:49.717Z,12.81
2019-03-23T18:00:49.836Z,12.54
2019-03-23T18:02:49.941Z,12.34
2019-03-23T18:04:50.436Z,12.24
2019-03-23T18:06:50.643Z,12.03
2019-03-23T18:08:49.903Z,11.97
2019-03-23T18:10:50.004Z,11.78
2019-03-23T18:12:50.114Z,11.61
2019-03-23T18:14:50.298Z,11.49
2019-03-23T18:16:50.380Z,11.41
2019-03-23T18:18:50.432Z,11.39
2019-03-23T18:20:50.475Z,11.37
2019-03-23T18:22:50.651Z,11.33
2019-03-23T18:24:49.720Z,11.16
2019-03-23T18:26:49.809Z,11.02
2019-03-23T18:28:49.826Z,10.93
2019-03-23T18:30:49.944Z,10.83
2019-03-23T18:32:50.047Z,10.78
2019-03-23T18:34:50.395Z,10.64
2019-03-23T18:36:50.607Z,10.59
2019-03-23T18:38:50.572Z,10.49
2019-03-23T18:40:50.692Z,10.41
2019-03-23T18:42:49.772Z,10.33
2019-03-23T18:44:49.846Z,10.29
2019-03-23T18:46:50.159Z,10.27
2019-03-23T18:48:50.203Z,10.26
2019-03-23T18:50:50.338Z,10.23
2019-03-23T18:52:50.394Z,10.18
2019-03-23T18:54:50.452Z,10.11
2019-03-23T18:56:50.630Z,9.98
2019-03-23T18:58:49.756Z,9.94
2019-03-23T19:00:49.877Z,9.82
2019-03-23T19:02:50.000Z,9.76
2019-03-23T19:04:50.438Z,9.70
2019-03-23T19:06:49.750Z,9.61
2019-03-23T19:08:49.745Z,9.57
2019-03-23T19:10:49.891Z,9.47
2019-03-23T19:12:49.859Z,9.37
2019-03-23T19:14:49.977Z,9.31
2019-03-23T19:16:50.228Z,9.23
2019-03-23T19:18:50.285Z,9.20
2019-03-23T19:20:50.380Z,9.14
2019-03-23T19:22:50.504Z,9.05
2019-03-23T19:24:50.618Z,8.98
2019-03-23T19:26:49.931Z,8.84
2019-03-23T19:28:50.016Z,8.80
2019-03-23T19:30:50.057Z,8.70
2019-03-23T19:32:50.187Z,8.66
2019-03-23T19:34:50.640Z,8.63
2019-03-23T19:36:49.855Z,8.60
2019-03-23T19:38:50.100Z,8.58
2019-03-23T19:40:50.160Z,8.51
2019-03-23T19:42:50.238Z,8.45
2019-03-23T19:44:50.335Z,8.41
2019-03-23T19:46:52.725Z,8.34
2019-03-23T19:48:49.741Z,8.30
2019-03-23T19:50:49.964Z,8.23
2019-03-23T19:52:50.056Z,8.15
2019-03-23T19:54:50.181Z,8.11
2019-03-23T19:56:50.444Z,8.06
2019-03-23T19:58:50.515Z,8.03
2019-03-23T20:00:50.601Z,8.03
2019-03-23T20:02:50.660Z,7.96
2019-03-23T20:04:50.112Z,7.93
2019-03-23T20:06:50.397Z,7.83
2019-03-23T20:08:50.440Z,7.80
2019-03-23T20:10:50.537Z,7.76
2019-03-23T20:12:50.639Z,7.72
2019-03-23T20:14:49.749Z,7.71
2019-03-23T20:16:49.871Z,7.88
2019-03-23T20:18:49.938Z,7.95
2019-03-23T20:20:50.142Z,8.03
2019-03-23T20:22:50.298Z,8.15
2019-03-23T20:24:50.505Z,8.17
2019-03-23T20:26:50.655Z,8.16
2019-03-23T20:28:49.725Z,8.27
2019-03-23T20:30:49.778Z,8.67
2019-03-23T20:32:49.904Z,8.75
2019-03-23T20:34:50.314Z,9.09
2019-03-23T20:36:50.454Z,9.25
2019-03-23T20:38:50.470Z,9.28
2019-03-23T20:40:50.516Z,9.23
2019-03-23T20:42:50.619Z,9.11
2019-03-23T20:44:50.697Z,9.11
2019-03-23T20:46:49.930Z,8.98
2019-03-23T20:48:50.004Z,9.03
2019-03-23T20:50:50.121Z,9.05
2019-03-23T20:52:50.225Z,9.06
2019-03-23T20:54:50.326Z,9.16
2019-03-23T20:56:50.566Z,9.18
2019-03-23T20:58:50.656Z,9.13
2019-03-23T21:00:49.727Z,9.03
2019-03-23T21:02:49.798Z,8.90
2019-03-23T21:04:50.348Z,8.76
2019-03-23T21:06:50.583Z,8.62
2019-03-23T21:08:50.700Z,8.62
2019-03-23T21:10:49.797Z,8.39
2019-03-23T21:12:49.901Z,8.33
2019-03-23T21:14:50.032Z,8.21
2019-03-23T21:16:50.327Z,8.20
2019-03-23T21:18:50.457Z,8.13
2019-03-23T21:20:50.562Z,8.09
2019-03-23T21:22:50.639Z,8.08
2019-03-23T21:24:49.708Z,8.06
2019-03-23T21:26:49.935Z,8.05
2019-03-23T21:28:50.010Z,8.03
2019-03-23T21:30:50.093Z,8.01
2019-03-23T21:32:50.145Z,8.02
2019-03-23T21:34:50.548Z,8.02
2019-03-23T21:36:49.790Z,7.99
2019-03-23T21:38:49.798Z,7.97
2019-03-23T21:40:49.908Z,7.95
2019-03-23T21:42:50.066Z,7.99
2019-03-23T21:44:50.215Z,7.99
2019-03-23T21:46:50.438Z,8.10
2019-03-23T21:48:50.543Z,8.45
2019-03-23T21:50:50.652Z,8.52
2019-03-23T21:52:49.707Z,8.51
2019-03-23T21:54:49.837Z,8.51
2019-03-23T21:56:49.972Z,8.45
2019-03-23T21:58:50.089Z,8.47
2019-03-23T22:00:50.210Z,8.51
2019-03-23T22:02:50.247Z,8.50
2019-03-23T22:04:49.781Z,8.45
2019-03-23T22:06:49.972Z,8.43
2019-03-23T22:08:50.084Z,8.39
2019-03-23T22:10:50.217Z,8.38
2019-03-23T22:12:50.313Z,8.36
2019-03-23T22:14:50.402Z,8.25
2019-03-23T22:16:50.607Z,8.22
2019-03-23T22:18:50.627Z,8.12
2019-03-23T22:20:50.672Z,8.01
2019-03-23T22:22:50.627Z,8.02
2019-03-23T22:24:49.781Z,8.17
2019-03-23T22:26:49.978Z,8.19
2019-03-23T22:28:50.099Z,8.07
2019-03-23T22:30:50.185Z,8.06
2019-03-23T22:32:50.218Z,7.96
2019-03-23T22:34:49.798Z,7.97
2019-03-23T22:36:49.933Z,8.16
2019-03-23T22:38:50.055Z,8.26
2019-03-23T22:40:50.158Z,8.25
2019-03-23T22:42:50.187Z,8.28
2019-03-23T22:44:53.162Z,8.30
2019-03-23T22:46:50.378Z,8.34
2019-03-23T22:48:50.384Z,8.32
2019-03-23T22:50:50.528Z,8.32
2019-03-23T22:52:50.524Z,8.13
2019-03-23T22:54:50.593Z,8.08
2019-03-23T22:56:49.924Z,8.10
2019-03-23T22:58:50.002Z,8.10
2019-03-23T23:00:50.090Z,7.99
2019-03-23T23:02:50.238Z,7.90
2019-03-23T23:04:49.714Z,7.76
2019-03-23T23:06:49.938Z,7.61
2019-03-23T23:08:50.039Z,7.53
2019-03-23T23:10:50.237Z,7.45
2019-03-23T23:12:50.289Z,7.40
2019-03-23T23:15:05.136Z,7.34
2019-03-23T23:16:50.632Z,7.39
2019-03-23T23:18:49.683Z,7.58
2019-03-23T23:20:49.819Z,7.67
2019-03-23T23:22:49.905Z,7.66
2019-03-23T23:24:50.017Z,7.58
2019-03-23T23:26:50.289Z,7.55
2019-03-23T23:28:50.346Z,7.43
2019-03-23T23:30:50.384Z,7.37
2019-03-23T23:32:50.491Z,7.34
2019-03-23T23:34:49.888Z,7.39
2019-03-23T23:36:50.213Z,7.44
2019-03-23T23:38:52.900Z,7.43
2019-03-23T23:40:49.978Z,7.44
2019-03-23T23:42:50.087Z,7.41
2019-03-23T23:44:50.173Z,7.33
2019-03-23T23:46:50.478Z,7.18
2019-03-23T23:48:51.948Z,7.14
2019-03-23T23:50:50.152Z,7.04
2019-03-23T23:52:50.252Z,6.98
2019-03-23T23:54:50.256Z,6.84
2019-03-23T23:56:50.877Z,6.84
2019-03-23T23:58:50.122Z,6.82
